createdAt,value
2022-10-08T03:02:37.070Z,100944.72
2022-10-08T03:05:08.857Z,100933.28
2022-10-08T03:07:35.341Z,100936.50
2022-10-08T03:10:06.629Z,100931.56
2022-10-08T03:12:34.680Z,100943.13
2022-10-08T03:15:01.433Z,100943.72
2022-10-08T03:17:44.805Z,100948.50
2022-10-08T03:20:12.275Z,100949.03
2022-10-08T03:22:38.883Z,100948.22
2022-10-08T03:25:05.987Z,100948.88
2022-10-08T03:27:32.465Z,100948.19
2022-10-08T03:29:58.870Z,100943.69
2022-10-08T03:32:26.317Z,100946.22
2022-10-08T03:34:53.522Z,100946.38
2022-10-08T03:37:20.854Z,100941.59
2022-10-08T03:39:47.448Z,100950.88
2022-10-08T03:42:13.995Z,100943.09
2022-10-08T03:44:40.422Z,100952.94
2022-10-08T03:47:06.840Z,100943.63
2022-10-08T03:49:34.685Z,100942.50
2022-10-08T03:52:01.182Z,100941.00
2022-10-08T03:54:27.631Z,100942.03
2022-10-08T03:56:54.028Z,100934.66
2022-10-08T03:59:20.479Z,100934.13
2022-10-08T04:01:46.977Z,100929.84
2022-10-08T04:04:13.585Z,100928.00
2022-10-08T04:06:40.027Z,100931.41
2022-10-08T04:09:06.560Z,100926.09
2022-10-08T04:11:33.010Z,100930.50
2022-10-08T04:14:00.299Z,100924.22
2022-10-08T04:16:26.813Z,100927.31
2022-10-08T04:18:53.257Z,100924.22
2022-10-08T04:21:20.280Z,100937.88
2022-10-08T04:23:49.557Z,100929.88
2022-10-08T04:26:16.416Z,100935.81
2022-10-08T04:28:44.437Z,100930.44
2022-10-08T04:31:19.259Z,100933.22
2022-10-08T04:33:46.595Z,100933.66
2022-10-08T04:36:22.335Z,100933.38
2022-10-08T04:38:49.108Z,100928.72
2022-10-08T04:41:28.315Z,100928.06
2022-10-08T04:43:58.645Z,100930.16
2022-10-08T04:46:25.139Z,100930.00
2022-10-08T04:48:54.065Z,100939.59
2022-10-08T04:51:23.265Z,100946.25
2022-10-08T04:53:50.369Z,100938.50
2022-10-08T04:56:23.625Z,100941.22
2022-10-08T04:58:50.586Z,100945.22
2022-10-08T05:01:19.474Z,100938.56
2022-10-08T05:03:48.752Z,100940.84
2022-10-08T05:06:16.863Z,100941.28
2022-10-08T05:08:44.653Z,100942.81
2022-10-08T05:11:11.624Z,100939.75
2022-10-08T05:13:38.151Z,100942.72
2022-10-08T05:16:10.285Z,100944.25
2022-10-08T05:18:38.071Z,100938.03
2022-10-08T05:21:06.641Z,100940.47
2022-10-08T05:23:33.890Z,100937.22
2022-10-08T05:26:02.345Z,100942.06
2022-10-08T05:28:29.876Z,100937.66
2022-10-08T05:31:00.998Z,100936.63
2022-10-08T05:33:27.492Z,100945.25
2022-10-08T05:35:54.070Z,100942.81
2022-10-08T05:38:20.662Z,100946.19
2022-10-08T05:40:47.233Z,100944.53
2022-10-08T05:43:13.897Z,100945.22
2022-10-08T05:45:40.316Z,100942.97
2022-10-08T05:48:06.778Z,100945.09
2022-10-08T05:50:36.422Z,100935.50
2022-10-08T05:53:05.380Z,100950.28
2022-10-08T05:55:35.150Z,100945.38
2022-10-08T05:58:01.639Z,100951.13
2022-10-08T06:00:28.241Z,100953.22
2022-10-08T06:02:54.711Z,100959.44
2022-10-08T06:05:21.975Z,100954.50
2022-10-08T06:07:48.541Z,100953.22
2022-10-08T06:10:15.041Z,100956.28
2022-10-08T06:12:41.455Z,100947.50
2022-10-08T06:15:08.133Z,100950.00
2022-10-08T06:17:34.650Z,100954.91
2022-10-08T06:20:01.118Z,100963.91
2022-10-08T06:22:27.509Z,100957.53
2022-10-08T06:24:54.110Z,100964.31
2022-10-08T06:27:20.540Z,100964.50
2022-10-08T06:29:46.951Z,100973.38
2022-10-08T06:32:13.411Z,100975.94
2022-10-08T06:34:41.964Z,100977.06
2022-10-08T06:37:08.471Z,100982.84
2022-10-08T06:39:34.950Z,100983.13
2022-10-08T06:42:01.495Z,100986.75
2022-10-08T06:44:27.928Z,100989.16
2022-10-08T06:46:54.423Z,100998.91
2022-10-08T06:49:22.142Z,100988.47
2022-10-08T06:51:48.604Z,100993.78
2022-10-08T06:54:15.427Z,100990.97
2022-10-08T06:56:41.887Z,100997.75
2022-10-08T06:59:08.470Z,100989.59
2022-10-08T07:01:36.074Z,100984.88
2022-10-08T07:04:04.347Z,100990.63
2022-10-08T07:06:31.343Z,100988.75
2022-10-08T07:09:00.158Z,100993.22
2022-10-08T07:11:27.421Z,100991.28
2022-10-08T07:13:55.141Z,100986.81
2022-10-08T07:16:24.212Z,100990.94
2022-10-08T07:18:52.561Z,100996.66
2022-10-08T07:21:20.715Z,101014.16
2022-10-08T07:23:47.278Z,101018.38
2022-10-08T07:26:16.198Z,101013.09
2022-10-08T07:29:04.563Z,101006.25
2022-10-08T07:31:33.822Z,101007.84
2022-10-08T07:34:01.855Z,101009.59
2022-10-08T07:36:29.278Z,101013.50
2022-10-08T07:38:57.935Z,101016.25
2022-10-08T07:41:25.045Z,101019.44
2022-10-08T07:43:53.117Z,101014.28
2022-10-08T07:46:20.258Z,101020.69
2022-10-08T07:48:46.948Z,101021.91
2022-10-08T07:51:19.451Z,101019.03
2022-10-08T07:53:46.582Z,101023.75
2022-10-08T07:56:15.735Z,101024.53
2022-10-08T07:58:42.265Z,101028.22
2022-10-08T08:01:14.023Z,101028.66
2022-10-08T08:03:40.625Z,101028.91
2022-10-08T08:06:10.884Z,101036.41
2022-10-08T08:08:39.260Z,101039.53
2022-10-08T08:11:07.493Z,101042.75
2022-10-08T08:13:37.454Z,101035.16
2022-10-08T08:16:07.304Z,101035.28
2022-10-08T08:18:36.682Z,101039.56
2022-10-08T08:21:09.839Z,101034.13
2022-10-08T08:23:39.645Z,101031.75
2022-10-08T08:26:10.071Z,101035.69
2022-10-08T08:28:37.019Z,101039.56
2022-10-08T08:31:17.939Z,101037.25
2022-10-08T08:33:50.832Z,101044.38
2022-10-08T08:36:19.068Z,101044.31
2022-10-08T08:38:46.445Z,101036.81
2022-10-08T08:41:22.143Z,101044.16
2022-10-08T08:43:48.925Z,101042.72
2022-10-08T08:46:20.991Z,101036.38
2022-10-08T08:48:48.206Z,101036.03
2022-10-08T08:51:16.446Z,101044.78
2022-10-08T08:53:43.130Z,101046.25
2022-10-08T08:56:15.799Z,101037.13
2022-10-08T08:58:49.816Z,101036.63
2022-10-08T09:01:19.588Z,101047.00
2022-10-08T09:03:51.007Z,101038.22
2022-10-08T09:06:22.689Z,101034.13
2022-10-08T09:09:04.232Z,101047.97
2022-10-08T09:11:30.794Z,101054.69
2022-10-08T09:14:27.029Z,101055.63
2022-10-08T09:16:56.057Z,101055.47
2022-10-08T09:19:22.733Z,101062.38
2022-10-08T09:21:49.191Z,101059.78
2022-10-08T09:24:16.744Z,101062.41
2022-10-08T09:26:43.479Z,101065.88
2022-10-08T09:29:31.277Z,101064.16
2022-10-08T09:31:57.889Z,101064.31
2022-10-08T09:34:24.451Z,101071.66
2022-10-08T09:37:03.422Z,101063.75
2022-10-08T09:39:32.711Z,101069.44
2022-10-08T09:42:19.481Z,101065.81
2022-10-08T09:44:59.047Z,101069.19
2022-10-08T09:47:27.088Z,101054.97
2022-10-08T09:50:15.883Z,101068.97
2022-10-08T09:52:43.031Z,101073.22
2022-10-08T09:55:31.404Z,101069.88
2022-10-08T09:58:04.050Z,101078.81
2022-10-08T10:00:35.517Z,101081.78
2022-10-08T10:03:04.917Z,101073.50
2022-10-08T10:05:36.025Z,101083.09
2022-10-08T10:08:02.910Z,101071.97
2022-10-08T10:10:34.556Z,101077.75
2022-10-08T10:13:19.399Z,101082.59
2022-10-08T10:16:14.371Z,101082.34
2022-10-08T10:18:55.930Z,101085.53
2022-10-08T10:21:40.425Z,101081.16
2022-10-08T10:24:15.427Z,101091.78
2022-10-08T10:26:44.171Z,101097.69
2022-10-08T10:29:17.993Z,101091.31
2022-10-08T10:31:50.928Z,101102.75
2022-10-08T10:34:30.568Z,101105.06
2022-10-08T10:37:01.990Z,101096.03
2022-10-08T10:39:33.752Z,101101.69
2022-10-08T10:42:21.295Z,101097.47
2022-10-08T10:44:56.177Z,101095.34
2022-10-08T10:47:29.617Z,101099.19
2022-10-08T10:50:00.302Z,101104.38
2022-10-08T10:52:39.558Z,101100.22
2022-10-08T10:55:27.936Z,101099.69
2022-10-08T10:58:00.523Z,101100.94
2022-10-08T11:00:48.025Z,101096.16
2022-10-08T11:03:38.442Z,101099.78
2022-10-08T11:06:26.245Z,101105.44
2022-10-08T11:09:19.235Z,101099.03
2022-10-08T11:11:52.381Z,101100.19
2022-10-08T11:14:42.590Z,101103.94
2022-10-08T11:17:31.948Z,101097.47
2022-10-08T11:20:11.112Z,101101.03
2022-10-08T11:23:00.465Z,101105.56
2022-10-08T11:29:00.171Z,101105.53
2022-10-08T11:31:45.266Z,101106.75
2022-10-08T11:34:29.390Z,101107.59
2022-10-08T11:37:13.811Z,101121.44
2022-10-08T11:40:03.308Z,101125.00
2022-10-08T11:42:45.025Z,101131.41
2022-10-08T11:45:24.032Z,101124.34
2022-10-08T11:47:54.390Z,101126.03
2022-10-08T11:50:28.673Z,101124.00
2022-10-08T11:53:09.707Z,101119.28
2022-10-08T11:55:37.738Z,101116.44
2022-10-08T11:58:08.814Z,101119.63
2022-10-08T12:00:46.614Z,101120.97
2022-10-08T12:03:33.920Z,101114.03
2022-10-08T12:06:25.252Z,101120.94
2022-10-08T12:08:54.673Z,101113.09
2022-10-08T12:11:30.019Z,101121.91
2022-10-08T12:14:11.803Z,101111.94
2022-10-08T12:16:47.352Z,101115.75
2022-10-08T12:19:32.469Z,101111.88
2022-10-08T12:22:02.342Z,101112.41
2022-10-08T12:24:38.194Z,101113.69
2022-10-08T12:27:16.865Z,101106.75
2022-10-08T12:29:56.883Z,101104.53
2022-10-08T12:32:29.351Z,101112.47
2022-10-08T12:34:56.514Z,101114.81
2022-10-08T12:37:31.980Z,101115.22
2022-10-08T12:40:09.353Z,101112.00
2022-10-08T12:42:38.368Z,101116.06
2022-10-08T12:45:17.633Z,101112.97
2022-10-08T12:48:19.404Z,101117.81
2022-10-08T12:51:03.390Z,101115.47
2022-10-08T12:53:30.279Z,101122.66
2022-10-08T12:55:58.431Z,101118.75
2022-10-08T12:58:29.115Z,101122.75
2022-10-08T13:00:59.768Z,101112.53
2022-10-08T13:03:26.356Z,101122.38
2022-10-08T13:05:55.229Z,101123.16
2022-10-08T13:08:29.562Z,101122.66
2022-10-08T13:10:57.986Z,101126.78
2022-10-08T13:13:44.844Z,101134.81
2022-10-08T13:16:15.549Z,101144.09
2022-10-08T13:18:45.664Z,101134.75
2022-10-08T13:21:24.013Z,101136.56
2022-10-08T13:23:51.308Z,101133.19
2022-10-08T13:26:37.735Z,101134.50
2022-10-08T13:29:22.327Z,101133.91
2022-10-08T13:31:56.178Z,101142.72
2022-10-08T13:34:24.822Z,101130.31
2022-10-08T13:36:57.349Z,101140.31
2022-10-08T13:39:49.616Z,101138.53
2022-10-08T13:42:18.572Z,101142.03
2022-10-08T13:44:45.621Z,101139.34
2022-10-08T13:47:18.050Z,101135.41
2022-10-08T13:49:44.788Z,101141.53
2022-10-08T13:52:21.471Z,101141.56
2022-10-08T13:54:49.650Z,101139.91
2022-10-08T13:57:16.187Z,101135.53
2022-10-08T13:59:42.966Z,101124.34
2022-10-08T14:02:13.943Z,101129.97
2022-10-08T14:04:40.505Z,101125.16
2022-10-08T14:07:20.085Z,101130.31
2022-10-08T14:09:46.554Z,101132.00
2022-10-08T14:12:12.979Z,101133.25
2022-10-08T14:14:39.430Z,101132.91
2022-10-08T14:17:06.035Z,101132.66
2022-10-08T14:19:32.469Z,101131.16
2022-10-08T14:21:59.427Z,101133.25
2022-10-08T14:24:25.953Z,101142.94
2022-10-08T14:26:52.738Z,101149.03
2022-10-08T14:29:19.182Z,101147.06
2022-10-08T14:31:45.738Z,101153.81
2022-10-08T14:34:12.308Z,101151.97
2022-10-08T14:36:41.755Z,101164.03
2022-10-08T14:39:09.854Z,101177.66
2022-10-08T14:41:36.704Z,101193.59
2022-10-08T14:44:03.191Z,101189.38
2022-10-08T14:46:29.644Z,101181.09
2022-10-08T14:48:56.198Z,101176.91
2022-10-08T14:51:22.671Z,101174.38
2022-10-08T14:53:50.222Z,101177.22
2022-10-08T14:56:16.778Z,101175.22
2022-10-08T14:58:43.268Z,101176.22
2022-10-08T15:01:10.200Z,101172.88
2022-10-08T15:03:36.756Z,101172.19
2022-10-08T15:06:03.368Z,101171.00
2022-10-08T15:08:29.960Z,101178.75
2022-10-08T15:10:56.397Z,101180.97
2022-10-08T15:13:22.967Z,101190.25
2022-10-08T15:15:49.388Z,101188.41
2022-10-08T15:18:15.870Z,101197.47
2022-10-08T15:20:43.043Z,101201.66
2022-10-08T15:23:10.450Z,101201.84
2022-10-08T15:25:37.411Z,101208.56
2022-10-08T15:28:04.281Z,101222.00
2022-10-08T15:30:30.909Z,101219.59
2022-10-08T15:33:03.004Z,101226.69
2022-10-08T15:35:33.364Z,101235.03
2022-10-08T15:37:59.899Z,101230.66
2022-10-08T15:40:28.623Z,101240.72
2022-10-08T15:42:55.054Z,101248.66
2022-10-08T15:45:21.628Z,101268.91
2022-10-08T15:47:51.070Z,101265.88
2022-10-08T15:50:17.540Z,101270.50
2022-10-08T15:52:46.351Z,101274.09
2022-10-08T15:55:13.255Z,101273.97
2022-10-08T15:57:39.779Z,101268.06
2022-10-08T16:00:06.829Z,101259.59
2022-10-08T16:02:33.401Z,101261.75
2022-10-08T16:04:59.979Z,101265.38
2022-10-08T16:07:26.395Z,101267.66
2022-10-08T16:09:52.855Z,101276.81
2022-10-08T16:12:19.288Z,101285.16
2022-10-08T16:14:45.712Z,101283.44
2022-10-08T16:17:12.170Z,101288.72
2022-10-08T16:19:38.689Z,101287.66
2022-10-08T16:22:05.517Z,101285.06
2022-10-08T16:24:32.027Z,101284.69
2022-10-08T16:26:58.479Z,101292.28
2022-10-08T16:29:24.906Z,101289.25
2022-10-08T16:31:51.473Z,101305.19
2022-10-08T16:34:20.675Z,101308.66
2022-10-08T16:36:51.146Z,101317.19
2022-10-08T16:39:20.791Z,101316.72
2022-10-08T16:41:48.157Z,101315.97
2022-10-08T16:44:16.851Z,101313.88
2022-10-08T16:46:48.341Z,101322.34
2022-10-08T16:49:25.027Z,101311.91
2022-10-08T16:51:58.722Z,101322.91
2022-10-08T16:54:25.740Z,101329.41
2022-10-08T16:56:52.160Z,101335.38
2022-10-08T16:59:21.383Z,101337.41
2022-10-08T17:01:50.643Z,101338.66
2022-10-08T17:04:18.239Z,101352.28
2022-10-08T17:06:44.849Z,101375.75
2022-10-08T17:09:14.527Z,101362.91
2022-10-08T17:11:41.907Z,101368.88
2022-10-08T17:14:10.270Z,101372.69
2022-10-08T17:16:37.326Z,101385.38
2022-10-08T17:19:04.314Z,101387.72
2022-10-08T17:21:33.030Z,101391.50
2022-10-08T17:24:01.740Z,101401.34
2022-10-08T17:26:29.559Z,101405.13
2022-10-08T17:28:56.055Z,101405.75
2022-10-08T17:31:29.299Z,101400.88
2022-10-08T17:33:55.809Z,101409.66
2022-10-08T17:36:25.317Z,101417.88
2022-10-08T17:38:53.377Z,101414.53
2022-10-08T17:41:25.108Z,101417.34
2022-10-08T17:43:52.965Z,101413.81
2022-10-08T17:46:23.495Z,101415.94
2022-10-08T17:48:50.791Z,101413.25
2022-10-08T17:51:20.215Z,101424.09
2022-10-08T17:54:01.606Z,101424.56
2022-10-08T17:56:28.848Z,101434.00
2022-10-08T17:58:56.144Z,101435.69
2022-10-08T18:01:31.959Z,101451.94
2022-10-08T18:04:01.204Z,101454.63
2022-10-08T18:06:29.052Z,101458.16
2022-10-08T18:08:57.093Z,101465.66
2022-10-08T18:11:24.368Z,101462.13
2022-10-08T18:13:51.122Z,101479.50
2022-10-08T18:16:19.077Z,101473.97
2022-10-08T18:18:46.858Z,101478.63
2022-10-08T18:21:16.566Z,101483.69
2022-10-08T18:23:43.566Z,101490.44
2022-10-08T18:26:34.828Z,101487.94
2022-10-08T18:29:04.440Z,101496.53
2022-10-08T18:31:32.972Z,101497.94
2022-10-08T18:34:08.647Z,101493.13
2022-10-08T18:36:37.159Z,101497.34
2022-10-08T18:39:06.978Z,101497.66
2022-10-08T18:41:38.030Z,101508.50
2022-10-08T18:44:06.310Z,101502.56
2022-10-08T18:46:36.857Z,101507.66
2022-10-08T18:49:04.721Z,101512.28
2022-10-08T18:51:31.725Z,101507.94
2022-10-08T18:53:59.289Z,101516.97
2022-10-08T18:56:31.220Z,101527.97
2022-10-08T18:59:03.858Z,101524.56
2022-10-08T19:01:41.174Z,101531.94
2022-10-08T19:04:11.883Z,101526.53
2022-10-08T19:06:39.931Z,101532.34
2022-10-08T19:09:07.053Z,101530.06
2022-10-08T19:11:44.644Z,101536.78
2022-10-08T19:14:13.639Z,101539.47
2022-10-08T19:16:41.252Z,101543.44
2022-10-08T19:19:14.685Z,101544.28
2022-10-08T19:21:41.849Z,101549.94
2022-10-08T19:24:12.382Z,101545.97
2022-10-08T19:26:38.792Z,101555.25
2022-10-08T19:29:05.327Z,101559.38
2022-10-08T19:31:34.021Z,101563.16
2022-10-08T19:34:05.908Z,101572.16
2022-10-08T19:36:37.504Z,101571.16
2022-10-08T19:39:06.217Z,101575.16
2022-10-08T19:41:32.918Z,101577.31
2022-10-08T19:43:59.653Z,101576.63
2022-10-08T19:46:27.334Z,101582.75
2022-10-08T19:48:59.691Z,101584.78
2022-10-08T19:51:28.126Z,101591.59
2022-10-08T19:53:55.450Z,101594.13
2022-10-08T19:56:22.535Z,101588.91
2022-10-08T19:58:53.051Z,101597.78
2022-10-08T20:01:22.021Z,101599.94
2022-10-08T20:03:49.236Z,101589.38
2022-10-08T20:06:23.241Z,101605.88
2022-10-08T20:08:54.155Z,101600.53
2022-10-08T20:11:21.173Z,101609.53
2022-10-08T20:13:49.189Z,101617.47
2022-10-08T20:16:24.250Z,101617.84
2022-10-08T20:19:01.421Z,101620.16
2022-10-08T20:21:30.266Z,101625.22
2022-10-08T20:23:57.215Z,101623.03
2022-10-08T20:26:35.354Z,101638.75
2022-10-08T20:29:16.975Z,101632.81
2022-10-08T20:31:46.621Z,101634.13
2022-10-08T20:34:17.595Z,101640.59
2022-10-08T20:36:48.276Z,101638.84
2022-10-08T20:39:16.799Z,101647.38
2022-10-08T20:41:43.614Z,101656.59
2022-10-08T20:44:10.336Z,101652.66
2022-10-08T20:46:37.657Z,101657.19
2022-10-08T20:49:04.965Z,101652.34
2022-10-08T20:51:32.853Z,101651.50
2022-10-08T20:54:05.428Z,101662.13
2022-10-08T20:56:38.443Z,101668.81
2022-10-08T20:59:05.426Z,101667.78
2022-10-08T21:01:35.465Z,101667.22
2022-10-08T21:04:02.305Z,101673.91
2022-10-08T21:06:36.146Z,101670.75
2022-10-08T21:09:02.746Z,101678.84
2022-10-08T21:11:30.263Z,101674.34
2022-10-08T21:13:59.475Z,101678.16
2022-10-08T21:16:28.301Z,101680.44
2022-10-08T21:18:59.901Z,101691.00
2022-10-08T21:21:27.709Z,101688.22
2022-10-08T21:23:54.139Z,101685.91
2022-10-08T21:26:24.001Z,101692.13
2022-10-08T21:28:53.209Z,101699.09
2022-10-08T21:31:20.905Z,101694.94
2022-10-08T21:33:49.250Z,101705.28
2022-10-08T21:36:29.451Z,101701.88
2022-10-08T21:38:56.570Z,101703.75
2022-10-08T21:41:25.005Z,101707.84
2022-10-08T21:43:54.145Z,101710.06
2022-10-08T21:46:22.866Z,101705.44
2022-10-08T21:49:08.182Z,101711.31
2022-10-08T21:51:35.396Z,101708.47
2022-10-08T21:54:03.563Z,101709.81
2022-10-08T21:56:32.183Z,101713.31
2022-10-08T21:59:00.467Z,101715.25
